EDXW

Westerland Sylt Airport

Westerland, Germany
METAR EDXW 181420Z 23019KT 9999 FEW017 SCT034 21/16 Q1018
Observed Flight Rules
Aug-18 @ 14:20 UTC (32 minutes ago) Visual Flight Rules
Wind Visibility Clouds
230° at 19 knots 10,000+ meters
  • Few at 1,700' AGL
  • Scattered at 3,400' AGL
Temperatures Readings
Current 21°C / 70°F
Dewpoint 16°C / 61°F
Humidity 73%
Altimeter 30.06" Hg
Pressure 1018 hPa
Elevation 20
METAR EDXW 181420Z 23019KT 9999 FEW017 SCT034 21/16 Q1018
Observed Flight Rules
Aug-18 @ 14:20 UTC
(32 minutes ago)
VFR
Wind Visibility
230° at 19 knots 10,000+ meters
Clouds
  • Few at 1,700' AGL
  • Scattered at 3,400' AGL
Temperature Dewpoint
21°C / 70°F 16°C / 61°F
Humidity Altimeter Pressure
73% 30.06" Hg 1018 hPa